createdAt,value
2019-03-03T00:00:52.076Z,99730.72
2019-03-03T00:03:21.258Z,99728.55
2019-03-03T00:05:50.426Z,99732.84
2019-03-03T00:08:19.875Z,99723.66
2019-03-03T00:10:49.053Z,99722.36
2019-03-03T00:13:18.229Z,99718.41
2019-03-03T00:15:47.686Z,99719.77
2019-03-03T00:18:17.145Z,99724.95
2019-03-03T00:20:46.324Z,99721.41
2019-03-03T00:23:15.777Z,99720.13
2019-03-03T00:25:44.971Z,99716.64
2019-03-03T00:28:14.157Z,99717.88
2019-03-03T00:30:43.939Z,99713.53
2019-03-03T00:33:13.116Z,99706.23
2019-03-03T00:35:42.339Z,99710.58
2019-03-03T00:38:36.572Z,99708.34
2019-03-03T00:41:23.283Z,99698.39
2019-03-03T00:44:09.874Z,99697.92
2019-03-03T00:46:58.111Z,99703.52
2019-03-03T00:49:55.478Z,99702.58
2019-03-03T00:52:59.056Z,99703.45
2019-03-03T00:55:35.528Z,99707.94
2019-03-03T00:58:13.588Z,99705.34
2019-03-03T01:00:53.443Z,99706.70
2019-03-03T01:03:41.657Z,99707.99
2019-03-03T01:06:17.486Z,99710.52
2019-03-03T01:09:10.245Z,99706.05
2019-03-03T01:12:04.398Z,99710.34
2019-03-03T01:14:46.397Z,99712.11
2019-03-03T01:17:44.373Z,99709.05
2019-03-03T01:20:35.818Z,99705.52
2019-03-03T01:23:36.049Z,99708.11
2019-03-03T01:26:05.441Z,99708.05
2019-03-03T01:28:34.618Z,99705.05
2019-03-03T01:31:03.871Z,99707.70
2019-03-03T01:33:33.241Z,99711.52
2019-03-03T01:36:02.414Z,99704.16
2019-03-03T01:38:32.763Z,99694.56
2019-03-03T01:41:02.041Z,99683.80
2019-03-03T01:43:31.257Z,99680.37
2019-03-03T01:46:00.457Z,99683.56
2019-03-03T01:48:31.599Z,99685.91
2019-03-03T01:51:00.780Z,99678.85
2019-03-03T01:53:30.032Z,99671.02
2019-03-03T01:55:59.704Z,99670.96
2019-03-03T01:58:28.921Z,99663.25
2019-03-03T02:00:58.230Z,99662.48
2019-03-03T02:03:28.778Z,99662.48
2019-03-03T02:05:57.910Z,99671.38
2019-03-03T02:08:27.130Z,99672.61
2019-03-03T02:10:56.532Z,99673.02
2019-03-03T02:13:25.809Z,99673.84
2019-03-03T02:15:55.162Z,99675.61
2019-03-03T02:18:24.538Z,99667.91
2019-03-03T02:20:53.817Z,99666.66
2019-03-03T02:23:23.159Z,99666.37
2019-03-03T02:25:52.462Z,99660.78
2019-03-03T02:28:21.750Z,99668.08
2019-03-03T02:30:51.391Z,99668.61
2019-03-03T02:33:20.756Z,99672.02
2019-03-03T02:35:49.940Z,99669.08
2019-03-03T02:38:19.242Z,99674.73
2019-03-03T02:40:48.510Z,99677.02
2019-03-03T02:43:17.683Z,99669.38
2019-03-03T02:45:46.878Z,99670.26
2019-03-03T02:48:16.441Z,99673.37
2019-03-03T02:50:45.796Z,99672.79
2019-03-03T02:53:15.048Z,99672.27
2019-03-03T02:55:44.548Z,99666.20
2019-03-03T02:58:13.828Z,99667.02
2019-03-03T03:00:52.460Z,99673.37
2019-03-03T03:03:22.281Z,99665.31
2019-03-03T03:06:00.578Z,99663.78
2019-03-03T03:08:37.308Z,99655.12
2019-03-03T03:11:20.897Z,99646.12
2019-03-03T03:14:07.468Z,99644.83
2019-03-03T03:16:48.959Z,99647.66
2019-03-03T03:19:40.260Z,99649.42
2019-03-03T03:22:19.950Z,99648.01
2019-03-03T03:25:11.181Z,99644.36
2019-03-03T03:28:02.523Z,99638.06
2019-03-03T03:30:38.449Z,99635.23
2019-03-03T03:33:29.862Z,99640.89
2019-03-03T03:36:17.070Z,99632.65
2019-03-03T03:39:11.194Z,99633.83
2019-03-03T03:41:58.066Z,99631.11
2019-03-03T03:44:45.169Z,99629.00
2019-03-03T03:47:36.487Z,99610.46
2019-03-03T03:50:23.996Z,99615.82
2019-03-03T03:53:08.376Z,99613.58
2019-03-03T03:55:56.162Z,99604.64
2019-03-03T03:58:39.742Z,99608.05
2019-03-03T04:01:26.789Z,99609.46
2019-03-03T04:04:12.137Z,99613.29
2019-03-03T04:06:47.580Z,99618.05
2019-03-03T04:09:25.379Z,99616.11
2019-03-03T04:12:19.903Z,99611.64
2019-03-03T04:15:03.814Z,99607.81
2019-03-03T04:17:55.066Z,99605.70
2019-03-03T04:20:49.109Z,99605.34
2019-03-03T04:23:40.488Z,99606.64
2019-03-03T04:26:28.977Z,99601.99
2019-03-03T04:29:20.253Z,99449.59
2019-03-03T04:31:59.309Z,99592.69
2019-03-03T04:34:47.495Z,99593.52
2019-03-03T04:37:41.940Z,99594.39
2019-03-03T04:40:36.345Z,99593.16
2019-03-03T04:43:39.834Z,99579.33
2019-03-03T04:46:30.061Z,99576.39
2019-03-03T04:49:17.237Z,99577.33
2019-03-03T04:52:08.392Z,99576.91
2019-03-03T04:54:56.089Z,99569.09
2019-03-03T04:57:55.030Z,99570.16
2019-03-03T05:00:41.996Z,99565.27
2019-03-03T05:03:42.277Z,99559.16
2019-03-03T05:06:30.576Z,99552.86
2019-03-03T05:09:21.619Z,99550.87
2019-03-03T05:12:23.539Z,99545.93
2019-03-03T05:14:54.570Z,99546.88
2019-03-03T05:17:43.340Z,99541.02
2019-03-03T05:20:13.074Z,99543.91
2019-03-03T05:22:42.257Z,99542.72
2019-03-03T05:25:11.958Z,99542.77
2019-03-03T05:27:41.278Z,99532.59
2019-03-03T05:30:10.660Z,99528.06
2019-03-03T05:32:40.081Z,99526.41
2019-03-03T05:35:09.409Z,99523.69
2019-03-03T05:37:40.670Z,99521.05
2019-03-03T05:40:10.208Z,99521.64
2019-03-03T05:42:39.724Z,99512.59
2019-03-03T05:45:08.996Z,99506.13
2019-03-03T05:47:38.175Z,99495.95
2019-03-03T05:50:07.747Z,99490.72
2019-03-03T05:52:36.924Z,99484.95
2019-03-03T05:55:06.130Z,99481.90
2019-03-03T05:57:35.441Z,99474.49
2019-03-03T06:00:05.150Z,99473.08
2019-03-03T06:02:34.330Z,99463.97
2019-03-03T06:05:03.820Z,99469.61
2019-03-03T06:07:33.007Z,99455.58
2019-03-03T06:10:02.179Z,99451.70
2019-03-03T06:12:31.485Z,99446.47
2019-03-03T06:15:00.656Z,99434.72
2019-03-03T06:17:29.843Z,99444.59
2019-03-03T06:19:59.140Z,99453.58
2019-03-03T06:22:28.437Z,99460.14
2019-03-03T06:24:57.611Z,99449.08
2019-03-03T06:27:27.108Z,99437.45
2019-03-03T06:29:56.296Z,99429.64
2019-03-03T06:32:25.477Z,99425.17
2019-03-03T06:34:55.319Z,99424.34
2019-03-03T06:37:24.485Z,99419.13
2019-03-03T06:39:53.698Z,99422.59
2019-03-03T06:42:23.113Z,99413.55
2019-03-03T06:44:52.300Z,99423.88
2019-03-03T06:47:21.484Z,99419.06
2019-03-03T06:49:50.812Z,99425.70
2019-03-03T06:52:20.090Z,99419.84
2019-03-03T06:54:49.264Z,99414.37
2019-03-03T06:57:18.586Z,99411.38
2019-03-03T06:59:47.760Z,99413.09
2019-03-03T07:02:17.033Z,99408.86
2019-03-03T07:04:46.530Z,99408.10
2019-03-03T07:07:15.708Z,99398.77
2019-03-03T07:09:44.937Z,99395.36
2019-03-03T07:12:14.238Z,99390.19
2019-03-03T07:14:43.413Z,99391.42
2019-03-03T07:17:12.586Z,99386.66
2019-03-03T07:19:42.116Z,99380.73
2019-03-03T07:22:11.320Z,99374.16
2019-03-03T07:24:40.502Z,99371.51
2019-03-03T07:27:10.012Z,99371.39
2019-03-03T07:29:39.592Z,99370.98
2019-03-03T07:32:08.773Z,99366.69
2019-03-03T07:34:38.205Z,99369.27
2019-03-03T07:37:07.425Z,99368.75
2019-03-03T07:39:36.594Z,99366.58
2019-03-03T07:42:06.046Z,99363.98
2019-03-03T07:44:35.224Z,99363.64
2019-03-03T07:47:04.726Z,99362.41
2019-03-03T07:49:34.073Z,99366.22
2019-03-03T07:52:03.267Z,99354.59
2019-03-03T07:54:32.451Z,99349.77
2019-03-03T07:57:01.909Z,99349.19
2019-03-03T07:59:31.098Z,99341.79
2019-03-03T08:02:00.270Z,99336.20
2019-03-03T08:04:29.701Z,99335.86
2019-03-03T08:06:58.909Z,99335.45
2019-03-03T08:09:28.125Z,99328.16
2019-03-03T08:11:57.606Z,99327.75
2019-03-03T08:14:27.032Z,99321.82
2019-03-03T08:16:56.261Z,99317.53
2019-03-03T08:19:25.628Z,99316.70
2019-03-03T08:21:54.802Z,99317.35
2019-03-03T08:24:24.085Z,99313.01
2019-03-03T08:26:53.466Z,99309.31
2019-03-03T08:29:22.656Z,99301.50
2019-03-03T08:31:51.984Z,99300.73
2019-03-03T08:34:21.433Z,99298.16
2019-03-03T08:36:50.605Z,99296.33
2019-03-03T08:39:19.787Z,99292.05
2019-03-03T08:41:53.199Z,99289.98
2019-03-03T08:44:41.342Z,99281.35
2019-03-03T08:47:29.784Z,99281.41
2019-03-03T08:50:21.059Z,99273.72
2019-03-03T08:53:05.478Z,99268.84
2019-03-03T08:55:47.769Z,99265.84
2019-03-03T08:58:25.255Z,99264.56
2019-03-03T09:01:12.049Z,99248.47
2019-03-03T09:03:52.730Z,99248.06
2019-03-03T09:06:45.556Z,99235.20
2019-03-03T09:09:33.928Z,99225.38
2019-03-03T09:12:30.985Z,99226.32
2019-03-03T09:15:28.819Z,99220.98
2019-03-03T09:18:13.430Z,99215.70
2019-03-03T09:20:59.090Z,99206.49
2019-03-03T09:23:35.872Z,99205.20
2019-03-03T09:26:24.156Z,99193.52
2019-03-03T09:29:09.800Z,99188.30
2019-03-03T09:32:13.428Z,99172.84
2019-03-03T09:35:00.274Z,99165.67
2019-03-03T09:37:38.309Z,99158.39
2019-03-03T09:40:32.602Z,99150.17
2019-03-03T09:43:13.674Z,99150.23
2019-03-03T09:45:54.545Z,99147.70
2019-03-03T09:48:49.157Z,99142.53
2019-03-03T09:51:49.321Z,99138.19
2019-03-03T09:54:26.795Z,99137.72
2019-03-03T09:57:17.868Z,99128.27
2019-03-03T10:00:05.289Z,99127.39
2019-03-03T10:02:56.533Z,99122.58
2019-03-03T10:05:53.879Z,99117.46
2019-03-03T10:08:45.228Z,99116.94
2019-03-03T10:11:24.016Z,99104.02
2019-03-03T10:14:09.386Z,99107.65
2019-03-03T10:17:10.422Z,99102.64
2019-03-03T10:19:46.785Z,99088.94
2019-03-03T10:22:33.436Z,99082.53
2019-03-03T10:25:20.262Z,99079.84
2019-03-03T10:28:14.383Z,99076.84
2019-03-03T10:31:11.597Z,99070.34
2019-03-03T10:33:58.375Z,99066.98
2019-03-03T10:36:49.711Z,99064.08
2019-03-03T10:39:36.892Z,99058.19
2019-03-03T10:42:23.725Z,99049.50
2019-03-03T10:45:15.263Z,99049.92
2019-03-03T10:48:02.419Z,99043.52
2019-03-03T10:50:54.792Z,99033.27
2019-03-03T10:53:42.918Z,99033.27
2019-03-03T10:56:34.342Z,99032.45
2019-03-03T10:59:12.345Z,99026.40
2019-03-03T11:01:49.928Z,99023.34
2019-03-03T11:04:44.085Z,99019.52
2019-03-03T11:07:31.332Z,99019.94
2019-03-03T11:10:18.359Z,99007.80
2019-03-03T11:13:00.819Z,99007.43
2019-03-03T11:15:41.870Z,99000.97
2019-03-03T11:18:29.077Z,98996.16
2019-03-03T11:21:17.220Z,98988.31
2019-03-03T11:24:05.853Z,98978.19
2019-03-03T11:26:57.110Z,98972.14
2019-03-03T11:29:32.633Z,98970.59
2019-03-03T11:32:23.421Z,98965.88
2019-03-03T11:35:14.620Z,98958.91
2019-03-03T11:37:51.682Z,98956.74
2019-03-03T11:40:55.622Z,98949.91
2019-03-03T11:43:46.254Z,98948.25
2019-03-03T11:46:37.360Z,98944.02
2019-03-03T11:49:19.533Z,98949.13
2019-03-03T11:52:08.389Z,98946.36
2019-03-03T11:55:08.646Z,98937.72
2019-03-03T11:57:46.133Z,98930.95
2019-03-03T12:00:37.553Z,98928.41
2019-03-03T12:03:16.383Z,98930.29
2019-03-03T12:06:03.321Z,98925.81
2019-03-03T12:08:51.744Z,98924.61
2019-03-03T12:11:38.563Z,98918.10
2019-03-03T12:14:17.336Z,98910.16
2019-03-03T12:17:08.767Z,98904.02
2019-03-03T12:19:57.128Z,98896.27
2019-03-03T12:22:45.296Z,98891.47
2019-03-03T12:25:23.557Z,98889.39
2019-03-03T12:28:22.872Z,98881.64
2019-03-03T12:31:00.369Z,98870.75
2019-03-03T12:33:51.729Z,98868.31
2019-03-03T12:36:38.745Z,98863.61
2019-03-03T12:39:26.461Z,98862.78
2019-03-03T12:42:17.952Z,98861.08
2019-03-03T12:44:52.899Z,98853.38
2019-03-03T12:47:28.917Z,98843.87
2019-03-03T12:50:16.081Z,98843.45
2019-03-03T12:52:57.191Z,98840.45
2019-03-03T12:55:41.197Z,98834.05
2019-03-03T12:58:47.794Z,98833.63
2019-03-03T13:01:41.442Z,98830.58
2019-03-03T13:04:33.098Z,98825.88
2019-03-03T13:07:21.352Z,98819.79
2019-03-03T13:10:28.062Z,98818.50
2019-03-03T13:13:11.897Z,98670.83
2019-03-03T13:16:00.152Z,98816.28
2019-03-03T13:18:50.648Z,98817.11
2019-03-03T13:21:51.261Z,98803.78
2019-03-03T13:24:32.708Z,98799.86
2019-03-03T13:27:16.363Z,98794.00
2019-03-03T13:29:58.446Z,98789.80
2019-03-03T13:32:38.729Z,98792.94
2019-03-03T13:35:26.912Z,98788.36
2019-03-03T13:38:18.109Z,98778.91
2019-03-03T13:41:06.119Z,98785.50
2019-03-03T13:43:35.589Z,98789.97
2019-03-03T13:46:04.964Z,98696.88
2019-03-03T13:48:34.172Z,98790.87
2019-03-03T13:51:03.529Z,98790.58
2019-03-03T13:53:32.735Z,98571.74
2019-03-03T13:56:01.989Z,98793.99
2019-03-03T13:58:31.429Z,98793.86
2019-03-03T14:01:00.732Z,98791.19
2019-03-03T14:03:29.935Z,98798.45
2019-03-03T14:05:59.472Z,98789.31
2019-03-03T14:08:28.668Z,98791.30
2019-03-03T14:10:57.966Z,98788.95
2019-03-03T14:13:27.490Z,98790.58
2019-03-03T14:15:56.697Z,98784.86
2019-03-03T14:18:25.922Z,98784.36
2019-03-03T14:20:55.340Z,98777.80
2019-03-03T14:23:24.610Z,98781.63
2019-03-03T14:25:53.837Z,98776.88
2019-03-03T14:28:23.183Z,98777.25
2019-03-03T14:30:52.494Z,98784.13
2019-03-03T14:33:21.794Z,98782.79
2019-03-03T14:35:51.113Z,98779.20
2019-03-03T14:38:20.441Z,98789.06
2019-03-03T14:40:49.700Z,98783.44
2019-03-03T14:43:19.351Z,98781.22
2019-03-03T14:45:48.795Z,98774.72
2019-03-03T14:48:18.096Z,98774.77
2019-03-03T14:50:47.485Z,98773.94
2019-03-03T14:53:16.686Z,98770.06
2019-03-03T14:55:45.999Z,98773.11
2019-03-03T14:58:15.517Z,98774.48
2019-03-03T15:00:44.758Z,98777.53
2019-03-03T15:03:14.015Z,98782.70
2019-03-03T15:05:43.452Z,98781.96
2019-03-03T15:08:12.657Z,98789.70
2019-03-03T15:10:41.916Z,98787.59
2019-03-03T15:13:11.492Z,98785.79
2019-03-03T15:15:40.860Z,98783.20
2019-03-03T15:18:10.089Z,98785.28
2019-03-03T15:20:39.639Z,98785.14
2019-03-03T15:23:09.069Z,98786.66
2019-03-03T15:25:38.374Z,98633.37
2019-03-03T15:28:07.782Z,98787.08
2019-03-03T15:30:36.978Z,98789.66
2019-03-03T15:33:06.531Z,98794.00
2019-03-03T15:35:35.973Z,98795.30
2019-03-03T15:38:05.463Z,98793.17
2019-03-03T15:40:34.670Z,98794.32
2019-03-03T15:43:04.050Z,98800.64
2019-03-03T15:45:33.383Z,98795.74
2019-03-03T15:48:02.638Z,98789.75
2019-03-03T15:50:32.219Z,98792.70
2019-03-03T15:53:01.410Z,98797.26
2019-03-03T15:55:30.846Z,98795.36
2019-03-03T15:58:00.425Z,98799.19
2019-03-03T16:00:30.677Z,98796.51
2019-03-03T16:02:59.864Z,98802.41
2019-03-03T16:05:29.324Z,98807.93
2019-03-03T16:07:58.597Z,98804.98
2019-03-03T16:10:27.821Z,98805.08
2019-03-03T16:12:57.637Z,98812.73
2019-03-03T16:16:00.784Z,98813.88
2019-03-03T16:18:46.797Z,98813.77
2019-03-03T16:21:27.371Z,98116.14
2019-03-03T16:24:02.583Z,98816.67
2019-03-03T16:26:37.420Z,98821.83
2019-03-03T16:29:07.076Z,98823.95
2019-03-03T16:31:36.488Z,98827.81
2019-03-03T16:34:06.240Z,98819.77
2019-03-03T16:36:42.550Z,98813.21
2019-03-03T16:39:12.661Z,98823.53
2019-03-03T16:41:46.494Z,98836.48
2019-03-03T16:44:15.769Z,98844.70
2019-03-03T16:46:45.286Z,98845.06
2019-03-03T16:49:14.567Z,98846.35
2019-03-03T16:51:43.869Z,98854.55
2019-03-03T16:54:13.286Z,98851.98
2019-03-03T16:56:42.561Z,98846.81
2019-03-03T16:59:11.878Z,98857.50
2019-03-03T17:01:41.241Z,98855.64
2019-03-03T17:04:10.427Z,98860.75
2019-03-03T17:06:39.763Z,98865.03
2019-03-03T17:09:09.318Z,98869.02
2019-03-03T17:11:38.677Z,98873.34
2019-03-03T17:14:07.964Z,98879.85
2019-03-03T17:16:37.501Z,98888.47
2019-03-03T17:19:06.700Z,98884.60
2019-03-03T17:21:36.087Z,98877.27
2019-03-03T17:24:05.508Z,98875.46
2019-03-03T17:26:34.730Z,98879.23
2019-03-03T17:29:04.067Z,98883.93
2019-03-03T17:31:33.725Z,98877.53
2019-03-03T17:34:02.949Z,98873.14
2019-03-03T17:36:32.373Z,98874.28
2019-03-03T17:39:01.910Z,98878.09
2019-03-03T17:41:31.137Z,98878.87
2019-03-03T17:44:00.488Z,98880.57
2019-03-03T17:46:30.016Z,98883.51
2019-03-03T17:48:59.309Z,98835.55
2019-03-03T17:51:28.629Z,98882.17
2019-03-03T17:53:58.220Z,98889.45
2019-03-03T17:56:27.434Z,98892.84
2019-03-03T17:58:56.661Z,98899.24
2019-03-03T18:01:26.107Z,98907.81
2019-03-03T18:03:55.277Z,98905.13
2019-03-03T18:06:24.531Z,98903.72
2019-03-03T18:08:53.902Z,98904.80
2019-03-03T18:11:23.081Z,98908.61
2019-03-03T18:13:52.355Z,98909.84
2019-03-03T18:16:21.739Z,98912.48
2019-03-03T18:18:50.977Z,98918.63
2019-03-03T18:21:20.296Z,98920.73
2019-03-03T18:23:49.831Z,98921.20
2019-03-03T18:26:19.032Z,98917.80
2019-03-03T18:28:48.306Z,98920.84
2019-03-03T18:31:17.761Z,98919.15
2019-03-03T18:33:47.046Z,98923.43
2019-03-03T18:36:16.417Z,98929.41
2019-03-03T18:38:45.939Z,98918.98
2019-03-03T18:41:15.225Z,98930.18
2019-03-03T18:43:44.442Z,98931.30
2019-03-03T18:46:13.810Z,98929.08
2019-03-03T18:48:43.139Z,98930.84
2019-03-03T18:51:12.631Z,98934.81
2019-03-03T18:53:41.913Z,98939.92
2019-03-03T18:56:11.114Z,98943.73
2019-03-03T18:58:40.323Z,98946.26
2019-03-03T19:01:09.825Z,98948.89
2019-03-03T19:03:39.011Z,98946.72
2019-03-03T19:06:08.276Z,98945.73
2019-03-03T19:08:37.721Z,98947.49
2019-03-03T19:11:06.897Z,98946.14
2019-03-03T19:13:36.115Z,98950.02
2019-03-03T19:16:05.510Z,98949.08
2019-03-03T19:18:34.707Z,98949.02
2019-03-03T19:21:03.943Z,98946.33
2019-03-03T19:23:33.313Z,98940.13
2019-03-03T19:26:02.508Z,98940.07
2019-03-03T19:28:32.096Z,98816.55
2019-03-03T19:31:01.547Z,98946.98
2019-03-03T19:33:35.336Z,98945.17
2019-03-03T19:36:05.577Z,98947.70
2019-03-03T19:38:34.766Z,98947.64
2019-03-03T19:41:03.957Z,98944.65
2019-03-03T19:43:33.317Z,98943.30
2019-03-03T19:46:02.756Z,98954.91
2019-03-03T19:48:31.926Z,98948.93
2019-03-03T19:51:03.281Z,98947.05
2019-03-03T19:53:32.446Z,98945.77
2019-03-03T19:56:01.633Z,98949.63
2019-03-03T19:58:31.376Z,98952.62
2019-03-03T20:01:00.667Z,98954.38
2019-03-03T20:03:29.961Z,98966.33
2019-03-03T20:05:59.278Z,98971.90
2019-03-03T20:08:28.488Z,98973.25
2019-03-03T20:10:57.718Z,98967.68
2019-03-03T20:13:27.050Z,98966.39
2019-03-03T20:15:56.258Z,98972.13
2019-03-03T20:18:25.517Z,98976.94
2019-03-03T20:20:54.942Z,98982.50
2019-03-03T20:23:24.202Z,98984.61
2019-03-03T20:25:56.418Z,98984.14
2019-03-03T20:28:25.677Z,98982.91
2019-03-03T20:30:55.372Z,98982.97
2019-03-03T20:33:24.644Z,98981.73
2019-03-03T20:35:53.883Z,98991.59
2019-03-03T20:38:23.111Z,98985.02
2019-03-03T20:40:52.690Z,98985.91
2019-03-03T20:43:21.926Z,98986.37
2019-03-03T20:45:51.238Z,98977.41
2019-03-03T20:48:20.690Z,98980.80
2019-03-03T20:50:50.134Z,98939.80
2019-03-03T20:53:19.534Z,98979.40
2019-03-03T20:55:49.003Z,98847.16
2019-03-03T20:58:19.089Z,98966.28
2019-03-03T21:00:48.345Z,98965.69
2019-03-03T21:03:17.831Z,98854.34
2019-03-03T21:05:47.204Z,98973.54
2019-03-03T21:08:16.425Z,98978.70
2019-03-03T21:10:45.914Z,98983.44
2019-03-03T21:13:15.191Z,98979.69
2019-03-03T21:15:44.494Z,98977.05
2019-03-03T21:18:13.924Z,98976.59
2019-03-03T21:20:43.133Z,98982.21
2019-03-03T21:23:12.377Z,98996.51
2019-03-03T21:25:41.920Z,99002.13
2019-03-03T21:28:11.696Z,98997.03
2019-03-03T21:30:40.958Z,98993.93
2019-03-03T21:33:10.221Z,98997.33
2019-03-03T21:35:39.474Z,99005.53
2019-03-03T21:38:08.742Z,99006.77
2019-03-03T21:40:38.219Z,99002.48
2019-03-03T21:43:07.572Z,98995.92
2019-03-03T21:45:36.819Z,98996.27
2019-03-03T21:48:06.326Z,98877.52
2019-03-03T21:50:35.578Z,98999.09
2019-03-03T21:53:04.755Z,98992.17
2019-03-03T21:55:34.078Z,98995.22
2019-03-03T21:58:03.425Z,98999.91
2019-03-03T22:00:34.068Z,99009.28
2019-03-03T22:03:03.465Z,99007.58
2019-03-03T22:05:32.762Z,99008.98
2019-03-03T22:08:02.125Z,99001.14
2019-03-03T22:10:32.283Z,99002.37
2019-03-03T22:13:12.235Z,99006.30
2019-03-03T22:15:41.623Z,99017.71
2019-03-03T22:18:10.908Z,99010.45
2019-03-03T22:20:40.112Z,99010.51
2019-03-03T22:23:09.651Z,99006.64
2019-03-03T22:25:38.980Z,99013.14
2019-03-03T22:28:08.318Z,99014.72
2019-03-03T22:30:37.760Z,99014.31
2019-03-03T22:33:07.625Z,99006.17
2019-03-03T22:35:36.958Z,99006.11
2019-03-03T22:38:06.225Z,98996.97
2019-03-03T22:40:36.006Z,99007.63
2019-03-03T22:43:05.369Z,99007.22
2019-03-03T22:45:34.672Z,99004.00
2019-03-03T22:48:03.872Z,99009.09
2019-03-03T22:50:33.213Z,99011.25
2019-03-03T22:53:02.593Z,99006.10
2019-03-03T22:55:36.695Z,99007.45
2019-03-03T22:58:06.273Z,99015.13
2019-03-03T23:00:54.384Z,99022.97
2019-03-03T23:03:27.765Z,99004.00
2019-03-03T23:06:22.517Z,98995.80
2019-03-03T23:09:30.107Z,98998.78
2019-03-03T23:12:10.053Z,99003.05
2019-03-03T23:15:06.528Z,99009.50
2019-03-03T23:18:14.226Z,99012.42
2019-03-03T23:21:00.598Z,99018.05
2019-03-03T23:24:05.814Z,99016.82
2019-03-03T23:26:35.165Z,99012.89
2019-03-03T23:29:04.435Z,99004.16
2019-03-03T23:31:33.658Z,99004.22
2019-03-03T23:34:03.089Z,99011.08
2019-03-03T23:36:32.318Z,99007.09
2019-03-03T23:39:01.495Z,99003.10
2019-03-03T23:41:30.900Z,99007.84
2019-03-03T23:44:00.041Z,99017.39
2019-03-03T23:46:29.229Z,99010.55
2019-03-03T23:48:58.938Z,99014.88
2019-03-03T23:51:28.121Z,99016.16
2019-03-03T23:53:57.363Z,99017.92
2019-03-03T23:56:26.833Z,99016.16
2019-03-03T23:58:56.003Z,99006.68
